estenglv
WAP version
Login form
RSS
Tallinna rulluisumaratonile saabub prominentseid võistlejaid 03.06.2010 (0)
Eesti ainulaadne rulluisutamise ja rullsuusatamise sarja EMT Rullituur 2010 avalöök toimub juba sel pühapäeval 06. juunil 2010. a. Lillepi pargi kergliiklusteel, kus Tallinna Rulluisumaratoni ...
Täna lõpeb soodusregistreerimine EMT Rullituurile 2010 31.05.2010 (0)
Täna 31. mail 2010. a. lõpeb soodustregistreerimine EMT Rullituurile 2010. Erinevates Eesti paikades toimuvatest etappidest koosneva ainulaadse rulluisutamise ja rullsuusatamise sarja esimene etappT ...
Algab EMT Rullituur 2010 25.05.2010 (0)
Tallinn - 42 km rulluisk
Tallinn - 20 km rulluisk
Tallinn - 25 km rullsuusk
Tallinn - Minimaraton P12
Tallinn - Minimaraton T12
301 Moved Permanently Date: Tue, 12 Nov 2019 03:00:03 GMT Server: Apache / ZoneOS Location: https://www.ilm.ee/~data/include/ilm.php3 Content-Length: 318 Keep-Alive: timeout=5, max=100 Connection: Keep-Alive Content-Type: text/html; charset=iso-8859-1 301 Moved Permanently

Moved Permanently

The document has moved here.


Apache / ZoneOS Server at www.ilm.ee Port 80
Facebook/EMTRullituur
Twitter/EMTRullituur
Tallinna Rulluisumaraton (EMT Rullituur 1.etapp)
Aeg 06.06.2010
Koht Tallinn EST
Spordiala Rulluisutamine
Distants 42 km ühisstardist 12:00
20 km ühisstardist 14:00
NB! Uus stardiaeg 14:30
25 km rullsuusasõit 16:30
Minimaraton 11:45
Tillusõit 11:30
 
Korraldaja Eesti Rulluisuliit, TopSport OÜ, Jaanus Ritson, Tel. +372 5551 2999, jaanus@topsport.ee  
Tallinna Rulluisumaratoni korraldajad tänavad kõiki osalejaid ja toetajaid! Kohtume EMT Rullituur 2010 teisel etapil, 3.juulil toimuval Pärnu Rullimaratonil!
• OLULINE OSALEJAINFO !!!
TULEMUSED
Nimi: Vanuseklass:
Text Xml Excel print
Koht Nr Nimi Võistkond  Aeg Koht v.k. PKT  
1 2 Ruusu Danila Uus Maa/Bont Team 1:10:15.3 1 100
2 41 Martinez Ruben Uusmaa/Bont 1:10:15.4 2 96
3 1 Keskpaik Kert Uus Maa/Bont Team 1:12:01.6 3 93
4 4 Tobreluts Indrek Rollerblade TopTeam 1:12:19.4 4 91
5 5 Koort Lauri Albe/Bont 1:12:45.9 5 89
6 45 Idarand Eerik Kalev Chocolate Team 1:12:45.9 6 87
7 9 Ritson Jaanus Rollerblade TopTeam 1:12:46.0 7 85
8 15 Gustafsson Helena Skelleftea AIK CK 1:12:46.1 1 100
9 32 Hjalmarsson David Stockholm Speedskaters 1:12:46.2 8 83
10 42 Kallais Ats 1:12:47.3 9 81
11 33 Tints Meelis K2 Eesti 1:12:53.3 10 79
12 60 Cesulis Viktoras vikingas 1:14:55.9 11 77
13 6 Laugus Jaanus Uus Maa/Bont Team 1:17:42.3 1 100
14 18 Bitenieks Lauris Ski-box ASI 1:17:42.6 12 75
15 8 Lokk Sulev K2 Eesti 1:17:42.8 2 96
16 24 Mäestu Jarek Arctic Sport Club 1:17:55.8 13 73
17 21 Haljak Antti 1:18:00.8 14 71
18 20 Sucksdorff Mika Uus Maa / Bont Team Estonia 1:18:03.0 15 69
19 10 Radionik Evgenia MapleRus 1:18:06.4 2 96
20 11 Kõrva Enel Rollerblade TopTeam 1:18:06.8 3 93
21 43 Maisa Arbo ABEC 1:18:07.2 3 93
22 71 Bahovski Janek Suusahullud 1:18:07.3 16 67
23 75 Wangel Henric Stockholm Speedskaters 1:19:37.7 17 65
24 116 Kuusk Andrus Välek 1:19:37.9 19 63
25 78 Patrik Permats Stockholm Speedskaters 1:19:37.9 18 61
26 51 Villo Raul Rulluisuklubi ABEC 1:19:38.3 20 59
27 35 Rudberg Sven Stockholm Speedskaters 1:19:38.4 1 100
28 56 Luik Janno 1:19:38.5 21 57
29 66 Valter Urmo 1:19:38.7 4 91
30 31 Lemsalu Marek Rulluisuklubi ABEC 1:19:39.3 22 55
31 19 Arumäe Andre Rulluisuklubi Abec 1:19:39.6 5 89
32 100 Roosimaa Mart 1:19:39.8 23 53
33 22 Marrandi Rain Rulluisuklubi ABEC 1:19:40.6 24 51
34 72 Tobreluts Rainer 1:19:44.8 6 87
35 109 Tomp Lauri Välek 1:21:03.8 25 49
36 54 Viiding Kalev 1:21:24.7 7 85
37 23 Kaljas Frid ABEC 1:22:20.7 26 47
38 16 Kotello Jekaterina Ski-box ASI 1:22:21.0 4 91
39 28 Fimberg Tarmo Rulluisuklubi ABEC 1:22:21.5 8 83
40 13 Kaareste Diana Rollerblade TopTeam 1:22:24.2 5 89
41 26 Pavlov Marko Rulluisuklubi ABEC 1:24:25.9 27 45
42 80 Tavast Arvi 1:25:36.7 9 81
43 25 Kullap Erki rulluisud.ee 1:27:01.9 28 43
44 77 Kallaste Risto 1:27:02.7 29 41
45 67 Soo Aivar Leipurin 1:27:02.9 10 79
46 61 Köhler Torbjörn Stockholm Speedskaters 1:27:02.9 3 96
47 17 Krauja Andris Ski-box ASI 1:27:02.9 2 93
48 29 Pals Paavo ABEC 1:27:03.0 11 77
49 14 Alusalu Sandra Rollerblade/Adavere 1:27:03.6 6 87
50 55 Tomingas Toivo Pärnu 1:27:04.3 12 75
51 27 Kaukver Andres Rulluisuklubi ABEC 1:27:04.4 4 91
52 110 Krass Reimo 1:28:07.5 30 39
53 87 Mägi Ingvar 1:28:07.7 31 37
54 115 Hirmo Aivar 1:29:32.6 13 73
55 53 Parve Ain EESTI PANGA SPORDIKLUBI 1:29:39.6 5 89
56 76 Kallavus Andres Rulluisuklubi ABEC 1:29:47.0 6 87
57 44 Juhani Ants ABEC 1:29:53.8 14 71
58 89 Vasemägi Liis ABEC 1:30:18.3 7 85
59 62 Meldre Boris 1:30:19.2 32 35
60 30 Milyutin Igor 1:31:19.8 33 33
61 50 Krooni Raul Rulluiisuklubi ABEC 1:31:22.0 15 69
62 64 Kiigemägi Veljo 1:31:37.5 27 45
63 57 Oidjärv Tarmo 1:32:51.7 34 31
64 86 Malinovskis Janeks 1:32:52.0 35 29
65 108 Kokk Ago 1:32:56.4 16 67
66 112 Sõõru Argo 1:32:59.3 17 65
67 34 Jeltsov Marti Team Extreme/Stockholm Speedskaters 1:33:06.2 36 27
68 63 Koplus Kaupo A2K Sport 1:33:20.7 18 63
69 59 Tali Tõnis HAWAII EXPRESS ALMARE 1:34:47.1 37 25
70 38 Sepp Leivo 1:35:16.7 38 23
71 36 Teesaar Toomas 1:35:42.1 39 21
72 113 Koppel Kuido 1:37:31.2 19 61
73 106 Kruusement Peeter 1:37:32.3 7 85
74 118 Vanaveski Reemet 1:37:47.5 20 59
75 39 Kokk Aniita 1:37:47.7 1 100
76 119 Aljo Danel sax001 1:40:02.3 40 19
77 81 Ansi Martin Ansitech 1:40:26.6 41 17
78 104 Bertelsone-Uuemäe Triinu Pets&Kats 1:40:43.0 8 83
79 68 Nõmmik Kaidu JELD-WEN Door Solutions 1:40:48.7 21 57
80 111 Kainel Mart 1:40:50.9 8 83
81 82 Aamisepp Rainer 1:41:19.6 22 55
82 117 Kapp Riho AMBLA SK 1:41:28.2 9 81
83 65 Nuut Viljar 1:41:46.4 23 53
84 74 Mööl Mark 1:42:10.3 24 51
85 83 Lõoke Peeter GSK 1:42:10.6 25 49
86 84 Koren Ljudmila 1:43:39.0 9 81
87 73 Männik Aadu Stockholm Speedskaters 1:44:10.1 10 79
88 70 Kivipõld Kaido 1:46:01.1 42 15
89 79 Päärson Taivo 1:47:38.0 43 13
90 69 Saare Piret 1:50:15.9 2 96
91 102 Sütt Margus Kaubamaja 1:51:12.7 11 77
92 58 Leet Margus FÖRCH 1:53:18.9 44 11
93 3 Paalme Tõnis ALBE TEAM/BONT 1:53:27.4 45 9
94 107 Taim Elmer 1:54:19.8 46 7
95 114 Kroon Olev 1:54:20.4 12 75
97 101 Leek Tarmo 2:00:53.3 13 73
98 88 Jõgi Allan 2:03:02.5 47 5
99 103 Peek Kuno 2:06:40.3 48 3
100 85 Kitsemets Kaarel 2:24:34.2 49 1
101 37 Koppel Tõnu 3:15:21.3 26 47
0 40 Makutenen Vladimir Valga Motoklubi DNF 28 0
0 105 Uuemäe Kalle Pets&Kats DNF 51 0
0 46 Meressaar Kaur Uusmaa/ Bont Team Estonia DNF 50 0
‹‹ Tagasi
Rullituur 2010_b
 
Kommenteerimine ajutisel peatatud!
Sorteeri vanemast uuemaks:
Vladimir, , 24.09.2010 16:35
Tallinna Rulluisumaraton (EMT Rullituur 1.etapp): http://www.youtube.com/watch?v=VlA3mafBNWg http://www.youtube.com/watch?v=qp6T36dn-54
Jaanus Ritson, jaanus@topsport.ee, 11.06.2010 00:35
EMT Rullituuri Pärnu etapi raames 03 juulil peetakse ka Eesti Meistrivõistlused maratonidistantsidel!!! Vanusgrupid ja distantsid leiad etapi juhendist! Juhend väljas selleks nädalavahetuseks!
Jaanus Ritson, jaanus@topsport.ee, 11.06.2010 00:20
FILMIMATERJALI saab näha: - telereklaamis Kanal2 alates järgmisest nädalast - Eraldi sarja promovas klipis EMT kodulehel ( augustis ) - eraldi kokkuvõttena parimatest momentidest www.rulluisutamine.ee ja Facebookis - kogu sarja etappe kuvaval DVD-l esmaesitlusena rullusuhooaja lõpupeol! - mõned üllatused siin seal ... Tule ja osale, saad filmile!?
m, , 08.06.2010 16:33
Tulemused ringiaegadega (www.championchip.ee): 20km -> http://engine.koduleht.net/templates/championchip/files/mdl_files.php/10Rep20km_tulemused.html 42km -> http://engine.koduleht.net/templates/championchip/files/mdl_files.php/11Rep42km_tulemused.html 25km suusarull -> http://engine.koduleht.net/templates/championchip/files/mdl_files.php/13Rep25km_tulemused.html
Rainer, , 08.06.2010 13:23
Üritust filmiti nii maast kui õhust,aga oskab keegi öelda,kes filmis ja kus ning kuna materiali näha saab.
Rivo, rivos@hotmail.com, 08.06.2010 11:42
mõned fotod maratonist - www.flickr.com/photos/rivos/
Aadu, , 08.06.2010 00:55
Tänud sulle Margus Leet, osa tema piltidest koos teiste piltidega homsest teisipäevast http://www.speedskaters.se/?p=4025#more-4025 , panen ka Rauli lingi sama artikli juurde kommentaaridesse, TÄNUD. Rootslased olid korraldusega väga rahul, eriti sobis vöistlus naiste vöitja Helena ettevalmistusse enne EM-i, kahjuks on Rootsi Cupi vöistlustel vaid 3 naisrullijat.Tulevikus on kindlasti oodata nende osavöttu ja mul ei ole enam vaja erilist reklaami teha.
Raul, , 07.06.2010 20:49
tegin ainult möned pildid. ootan ka teiste pilte! http://picasaweb.google.com/aaviku/TallinnaRulluisumaraton2010#
hei, , 07.06.2010 20:14
kõik tulemused vasakul tulbas!
Aadu, Aadumannik@gmail.com, 07.06.2010 12:55
Tere, rootsi söitjad sooviksid söidust pilte oma kodulehele panna. Kahjuks ei olnud endal vöimalus söidust pilte teha. Ole kena ja saada pilte , kas siis lingi näol vöi muul viisil allakirjutajale.Tänan


Kõige populaarsemad
EMT Rullituur 2010_r
EMT
TOPSPORT
RULLUISULIIT
ARCTIC
FAZER
TERE
LAIMA
GUTTA
ABC_MOTORS
IDS
RADEMAR
VIKING_LINE
ROLLERBALDE
KULKA
SPORTINFO
Skates4C
Kasutajanimi:
Parool:
 
*Uus kasutaja *Unustasid parooli?
SPORTINFO
KORRALDAJATELE
KIRJUTA MEILE
KONTAKT
KASUTUSTINGIMUSED
KOMMENTEERIMINE